createdAt,value
2023-05-10T00:12:41.805Z,101382.24
2023-05-10T00:15:09.946Z,101386.20
2023-05-10T00:17:36.910Z,101385.71
2023-05-10T00:20:06.055Z,101392.95
2023-05-10T00:22:33.482Z,101399.32
2023-05-10T00:25:00.691Z,101407.55
2023-05-10T00:27:27.662Z,101404.42
2023-05-10T00:29:54.682Z,101402.46
2023-05-10T00:32:22.012Z,101407.59
2023-05-10T00:34:49.091Z,101407.89
2023-05-10T00:37:16.033Z,101405.11
2023-05-10T00:39:42.909Z,101397.71
2023-05-10T00:42:09.816Z,101396.84
2023-05-10T00:44:37.070Z,101393.71
2023-05-10T00:47:04.117Z,101392.32
2023-05-10T00:49:31.191Z,101394.02
2023-05-10T00:51:58.214Z,101396.95
2023-05-10T00:54:25.158Z,101400.34
2023-05-10T00:56:52.919Z,101400.48
2023-05-10T00:59:20.079Z,101408.01
2023-05-10T01:01:47.494Z,101401.98
2023-05-10T01:04:14.986Z,101399.86
2023-05-10T01:06:42.960Z,101391.38
2023-05-10T01:09:10.922Z,101377.75
2023-05-10T01:11:39.422Z,101359.83
2023-05-10T01:14:06.550Z,101341.75
2023-05-10T01:16:34.862Z,101326.09
2023-05-10T01:19:01.873Z,101311.80
2023-05-10T01:21:55.194Z,101304.70
2023-05-10T01:24:23.418Z,101303.09
2023-05-10T01:27:02.747Z,101296.48
2023-05-10T01:30:01.414Z,101288.02
2023-05-10T01:32:44.882Z,101272.30
2023-05-10T01:35:16.030Z,101241.91
2023-05-10T01:37:43.059Z,101203.16
2023-05-10T01:40:41.228Z,101183.89
2023-05-10T01:43:11.970Z,101168.20
2023-05-10T01:45:49.040Z,101155.78
2023-05-10T01:48:16.088Z,101151.61
2023-05-10T01:50:44.317Z,101149.14
2023-05-10T01:53:12.335Z,101149.10
2023-05-10T01:55:46.640Z,101148.33
2023-05-10T01:58:20.385Z,101154.26
2023-05-10T02:00:47.865Z,101164.13
2023-05-10T02:03:14.998Z,101171.23
2023-05-10T02:05:42.522Z,101174.71
2023-05-10T02:08:09.464Z,101174.38
2023-05-10T02:10:37.952Z,101170.75
2023-05-10T02:13:05.224Z,101174.19
2023-05-10T02:15:32.448Z,101179.80
2023-05-10T02:17:59.723Z,101194.52
2023-05-10T02:20:26.777Z,101210.39
2023-05-10T02:22:55.072Z,101238.10
2023-05-10T02:25:22.680Z,101275.77
2023-05-10T02:27:49.625Z,101311.39
2023-05-10T02:30:17.753Z,101337.45
2023-05-10T02:32:45.081Z,101360.29
2023-05-10T02:35:12.193Z,101381.05
2023-05-10T02:37:39.158Z,101394.50
2023-05-10T02:40:06.944Z,101402.83
2023-05-10T02:42:36.219Z,101419.08
2023-05-10T02:45:08.734Z,101432.27
2023-05-10T02:47:36.252Z,101443.97
2023-05-10T02:50:03.291Z,101448.19
2023-05-10T02:52:38.262Z,101446.56
2023-05-10T02:55:06.054Z,101451.62
2023-05-10T02:57:34.895Z,101454.29
2023-05-10T03:00:03.882Z,101458.52
2023-05-10T03:02:32.124Z,101459.98
2023-05-10T03:04:59.934Z,101458.87
2023-05-10T03:07:27.362Z,101455.23
2023-05-10T03:09:54.310Z,101448.99
2023-05-10T03:12:30.980Z,101443.54
2023-05-10T03:15:19.840Z,101445.76
2023-05-10T03:17:55.931Z,101432.08
2023-05-10T03:20:28.028Z,101417.05
2023-05-10T03:22:57.671Z,101407.14
2023-05-10T03:26:26.684Z,101359.18
2023-05-10T03:28:58.218Z,101350.20
2023-05-10T03:31:25.344Z,101334.02
2023-05-10T03:33:53.301Z,101318.66
2023-05-10T03:36:25.601Z,101295.25
2023-05-10T03:38:52.961Z,101269.55
2023-05-10T03:41:19.872Z,101245.53
2023-05-10T03:43:47.362Z,101224.77
2023-05-10T03:46:14.421Z,101207.09
2023-05-10T03:48:41.678Z,101180.80
2023-05-10T03:51:08.732Z,101159.11
2023-05-10T03:53:35.868Z,101139.75
2023-05-10T03:56:02.904Z,101133.79
2023-05-10T03:58:29.952Z,101142.05
2023-05-10T04:00:57.308Z,101157.88
2023-05-10T04:03:24.726Z,101177.48
2023-05-10T04:06:00.336Z,101214.64
2023-05-10T04:08:27.571Z,101262.00
2023-05-10T04:10:54.602Z,101302.65
2023-05-10T04:13:22.461Z,101336.59
2023-05-10T04:15:49.519Z,101353.82
2023-05-10T04:18:16.460Z,101371.92
2023-05-10T04:20:43.518Z,101381.91
2023-05-10T04:23:10.557Z,101387.44
2023-05-10T04:25:37.500Z,101395.20
2023-05-10T04:28:04.794Z,101399.86
2023-05-10T04:30:31.724Z,101406.08
2023-05-10T04:32:59.372Z,101416.25
2023-05-10T04:35:26.504Z,101434.71
2023-05-10T04:37:53.446Z,101443.86
2023-05-10T04:40:20.911Z,101459.89
2023-05-10T04:42:47.850Z,101465.92
2023-05-10T04:45:17.766Z,101468.50
2023-05-10T04:47:44.730Z,101482.77
2023-05-10T04:50:11.962Z,101496.52
2023-05-10T04:52:38.904Z,101507.14
2023-05-10T04:55:08.523Z,101499.52
2023-05-10T04:57:35.459Z,101493.27
2023-05-10T05:00:03.142Z,101490.11
2023-05-10T05:02:30.301Z,101485.45
2023-05-10T05:04:59.053Z,101480.09
2023-05-10T05:07:26.512Z,101480.60
2023-05-10T05:09:53.451Z,101482.35
2023-05-10T05:12:20.610Z,101482.39
2023-05-10T05:14:47.582Z,101482.09
2023-05-10T05:17:14.499Z,101481.27
2023-05-10T05:19:41.404Z,101484.59
2023-05-10T05:22:09.318Z,101481.18
2023-05-10T05:24:38.917Z,101483.96
2023-05-10T05:27:05.956Z,101486.40
2023-05-10T05:29:33.220Z,101482.46
2023-05-10T05:32:00.358Z,101484.38
2023-05-10T05:34:27.416Z,101482.66
2023-05-10T05:36:55.065Z,101482.66
2023-05-10T05:39:22.010Z,101475.40
2023-05-10T05:41:48.952Z,101471.83
2023-05-10T05:44:15.902Z,101455.25
2023-05-10T05:46:42.843Z,101445.86
2023-05-10T05:49:09.994Z,101426.73
2023-05-10T05:51:36.933Z,101398.03
2023-05-10T05:54:05.513Z,101408.73
2023-05-10T05:56:32.496Z,101377.20
2023-05-10T05:58:59.521Z,101343.12
2023-05-10T06:01:26.477Z,101352.39
2023-05-10T06:03:53.753Z,101273.39
2023-05-10T06:06:21.065Z,101297.56
2023-05-10T06:08:47.917Z,101296.79
2023-05-10T06:11:14.774Z,101261.71
2023-05-10T06:13:43.358Z,101263.17
2023-05-10T06:16:10.302Z,101271.15
2023-05-10T06:18:37.431Z,101246.13
2023-05-10T06:21:04.773Z,101335.84
2023-05-10T06:23:31.720Z,101346.45
2023-05-10T06:25:58.579Z,101326.68
2023-05-10T06:28:25.508Z,101310.77
2023-05-10T06:30:52.520Z,101299.35
2023-05-10T06:33:19.498Z,101301.54
2023-05-10T06:35:46.461Z,101303.27
2023-05-10T06:38:13.698Z,101243.70
2023-05-10T06:40:44.015Z,101176.65
2023-05-10T06:43:11.169Z,101154.39
2023-05-10T06:45:38.115Z,101130.11
2023-05-10T06:48:05.125Z,101113.47
2023-05-10T06:50:32.045Z,101075.44
2023-05-10T06:52:59.158Z,100991.08
2023-05-10T06:55:26.646Z,101003.75
2023-05-10T06:57:54.100Z,100938.84
2023-05-10T07:00:21.417Z,100905.55
2023-05-10T07:02:48.711Z,100803.56
2023-05-10T07:05:16.594Z,100808.02
2023-05-10T07:07:43.988Z,100800.61
2023-05-10T07:10:11.146Z,100863.70
2023-05-10T07:12:38.311Z,100938.63
2023-05-10T07:15:06.360Z,101009.92
2023-05-10T07:17:34.539Z,100969.70
2023-05-10T07:20:02.001Z,100933.25
2023-05-10T07:22:29.131Z,100732.09
2023-05-10T07:24:56.084Z,100734.48
2023-05-10T07:27:23.025Z,100862.02
2023-05-10T07:29:50.070Z,100793.02
2023-05-10T07:32:17.392Z,100757.13
2023-05-10T07:34:44.580Z,100620.07
2023-05-10T07:37:11.632Z,100583.77
2023-05-10T07:39:38.673Z,100397.73
2023-05-10T07:42:05.712Z,100345.09
2023-05-10T07:44:32.666Z,100353.95
2023-05-10T07:46:59.600Z,100438.97
2023-05-10T07:49:27.104Z,100291.30
2023-05-10T07:51:54.109Z,100320.95
2023-05-10T07:54:21.059Z,100331.31
2023-05-10T07:56:48.452Z,100424.85
2023-05-10T07:59:18.527Z,100503.25
2023-05-10T08:01:45.730Z,100561.16
2023-05-10T08:04:12.983Z,100595.00
2023-05-10T08:06:40.871Z,100604.11
2023-05-10T08:09:08.042Z,100591.30
2023-05-10T08:11:35.298Z,100538.08
2023-05-10T08:14:02.367Z,100516.91
2023-05-10T08:16:30.100Z,100502.93
2023-05-10T08:18:57.178Z,100467.23
2023-05-10T08:21:24.205Z,100423.85
2023-05-10T08:23:51.156Z,100326.66
2023-05-10T08:26:18.185Z,100302.55
2023-05-10T08:28:45.448Z,100290.63
2023-05-10T08:31:12.392Z,100136.58
2023-05-10T08:33:41.525Z,100141.13
2023-05-10T08:36:09.648Z,100103.63
2023-05-10T08:38:37.356Z,100106.28
2023-05-10T08:41:04.970Z,100133.73
2023-05-10T08:43:32.443Z,100184.68
2023-05-10T08:46:01.821Z,100259.92
2023-05-10T08:48:28.778Z,100403.38
2023-05-10T08:50:56.337Z,100526.54
2023-05-10T08:53:23.726Z,100533.55
2023-05-10T08:55:50.737Z,100496.10
2023-05-10T08:58:18.313Z,100454.02
2023-05-10T09:00:45.320Z,100504.15
2023-05-10T09:03:12.392Z,100458.08
2023-05-10T09:05:39.435Z,100399.81
2023-05-10T09:08:07.304Z,100411.17
2023-05-10T09:10:34.250Z,100482.11
2023-05-10T09:13:01.305Z,100506.98
2023-05-10T09:15:28.345Z,100454.99
2023-05-10T09:17:55.933Z,100481.39
2023-05-10T09:20:23.783Z,100432.85
2023-05-10T09:22:50.749Z,100424.45
2023-05-10T09:25:18.221Z,100433.11
2023-05-10T09:27:46.321Z,100467.01
2023-05-10T09:30:17.902Z,100504.00
2023-05-10T09:32:46.572Z,100518.14
2023-05-10T09:35:22.014Z,100512.71
2023-05-10T09:37:50.727Z,100446.13
2023-05-10T09:40:24.819Z,100450.66
2023-05-10T09:43:02.572Z,100453.30
2023-05-10T09:45:31.261Z,100446.40
2023-05-10T09:47:58.534Z,100360.55
2023-05-10T09:50:26.316Z,100320.46
2023-05-10T09:53:00.229Z,100288.04
2023-05-10T09:55:46.121Z,100247.54
2023-05-10T09:58:16.370Z,100269.67
2023-05-10T10:00:44.624Z,100282.09
2023-05-10T10:03:16.389Z,100276.68
2023-05-10T10:05:44.668Z,100223.94
2023-05-10T10:08:12.306Z,100210.34
2023-05-10T10:10:41.573Z,100300.80
2023-05-10T10:13:08.974Z,100621.77
2023-05-10T10:15:36.188Z,100845.90
2023-05-10T10:18:05.311Z,100987.39
2023-05-10T10:20:32.465Z,101141.16
2023-05-10T10:22:59.396Z,101256.45
2023-05-10T10:25:26.642Z,101312.61
2023-05-10T10:27:53.628Z,101272.25
2023-05-10T10:30:37.546Z,101281.59
2023-05-10T10:33:10.419Z,101345.42
2023-05-10T10:35:41.280Z,101359.40
2023-05-10T10:38:09.326Z,101330.36
2023-05-10T10:40:36.372Z,101338.06
2023-05-10T10:43:36.198Z,101301.36
2023-05-10T10:46:16.609Z,101280.39
2023-05-10T10:48:55.090Z,101175.90
2023-05-10T10:51:22.108Z,101155.75
2023-05-10T10:53:49.060Z,101042.16
2023-05-10T10:56:16.716Z,101095.30
2023-05-10T10:58:52.492Z,101105.08
2023-05-10T11:01:19.605Z,101025.58
2023-05-10T11:04:18.616Z,101071.73
2023-05-10T11:06:45.775Z,101141.92
2023-05-10T11:09:13.568Z,101121.95
2023-05-10T11:11:52.180Z,101109.65
2023-05-10T11:14:21.461Z,101127.19
2023-05-10T11:16:48.538Z,101125.94
2023-05-10T11:19:17.660Z,101096.59
2023-05-10T11:22:06.771Z,101131.10
2023-05-10T11:24:35.019Z,101147.51
2023-05-10T11:27:02.192Z,101128.97
2023-05-10T11:29:29.268Z,101108.85
2023-05-10T11:31:58.822Z,101099.13
2023-05-10T11:34:36.440Z,101106.85
2023-05-10T11:37:03.605Z,101038.95
2023-05-10T11:39:31.957Z,101058.70
2023-05-10T11:41:59.100Z,101059.14
2023-05-10T11:44:33.021Z,101088.91
2023-05-10T11:47:01.592Z,101111.88
2023-05-10T11:49:28.639Z,101031.13
2023-05-10T11:52:05.512Z,100978.35
2023-05-10T11:54:32.462Z,101021.83
2023-05-10T11:56:59.501Z,101082.52
2023-05-10T11:59:26.444Z,101111.02
2023-05-10T12:01:53.387Z,101139.08
2023-05-10T12:04:20.496Z,101090.15
2023-05-10T12:06:47.911Z,101010.61
2023-05-10T12:09:15.464Z,100999.23
2023-05-10T12:11:44.326Z,100963.02
2023-05-10T12:14:12.012Z,100901.56
2023-05-10T12:16:39.004Z,100867.34
2023-05-10T12:19:06.768Z,100853.87
2023-05-10T12:21:33.755Z,100808.92
2023-05-10T12:24:04.907Z,100805.89
2023-05-10T12:26:32.285Z,100772.70
2023-05-10T12:29:20.193Z,100747.99
2023-05-10T12:31:55.079Z,100741.20
2023-05-10T12:34:26.912Z,100751.48
2023-05-10T12:36:54.677Z,100754.71
2023-05-10T12:39:21.733Z,100735.61
2023-05-10T12:41:48.850Z,100753.48
2023-05-10T12:44:16.105Z,100819.05
2023-05-10T12:46:43.040Z,100894.79
2023-05-10T12:49:10.129Z,100994.45
2023-05-10T12:51:37.448Z,101011.30
2023-05-10T12:54:04.822Z,100874.55
2023-05-10T12:56:31.741Z,100747.64
2023-05-10T12:58:58.887Z,100671.52
2023-05-10T13:01:26.207Z,100583.03
2023-05-10T13:03:53.297Z,100540.83
2023-05-10T13:06:20.335Z,100496.52
2023-05-10T13:08:47.889Z,100525.33
2023-05-10T13:11:18.110Z,100532.26
2023-05-10T13:13:45.887Z,100507.90
2023-05-10T13:16:12.928Z,100474.36
2023-05-10T13:18:40.188Z,100506.15
2023-05-10T13:21:08.667Z,100520.09
2023-05-10T13:23:36.011Z,100521.45
2023-05-10T13:26:03.055Z,100464.41
2023-05-10T13:28:30.718Z,100521.21
2023-05-10T13:30:57.834Z,100547.73
2023-05-10T13:33:24.949Z,100491.65
2023-05-10T13:35:53.703Z,100558.27
2023-05-10T13:38:22.536Z,100588.38
2023-05-10T13:40:54.015Z,100583.77
2023-05-10T13:43:21.402Z,100544.57
2023-05-10T13:45:48.449Z,100465.60
2023-05-10T13:48:15.586Z,100497.30
2023-05-10T13:50:42.845Z,100501.63
2023-05-10T13:53:09.811Z,100580.52
2023-05-10T13:55:37.041Z,100599.78
2023-05-10T13:58:03.992Z,100537.70
2023-05-10T14:00:31.136Z,100532.23
2023-05-10T14:02:58.235Z,100533.51
2023-05-10T14:05:26.298Z,100506.45
2023-05-10T14:07:53.824Z,100441.32
2023-05-10T14:10:21.293Z,100376.86
2023-05-10T14:12:48.323Z,100333.54
2023-05-10T14:15:15.473Z,100319.69
2023-05-10T14:17:42.959Z,100306.33
2023-05-10T14:20:10.577Z,100308.17
2023-05-10T14:22:37.531Z,100189.64
2023-05-10T14:25:05.088Z,100070.67
2023-05-10T14:27:33.539Z,100060.89
2023-05-10T14:30:00.531Z,99989.02
2023-05-10T14:32:28.622Z,99961.69
2023-05-10T14:34:55.830Z,99986.91
2023-05-10T14:37:22.880Z,100006.26
2023-05-10T14:39:49.920Z,99951.79
2023-05-10T14:42:16.867Z,99943.33
2023-05-10T14:44:43.815Z,99917.81
2023-05-10T14:47:12.049Z,99811.02
2023-05-10T14:49:39.537Z,99801.41
2023-05-10T14:52:06.489Z,99783.97
2023-05-10T14:54:34.661Z,99753.20
2023-05-10T14:57:01.907Z,99718.81
2023-05-10T14:59:29.068Z,99699.54
2023-05-10T15:01:56.819Z,99760.56
2023-05-10T15:04:26.006Z,99842.67
2023-05-10T15:07:00.363Z,99892.49
2023-05-10T15:09:28.859Z,99930.93
2023-05-10T15:11:56.499Z,99987.54
2023-05-10T15:14:24.148Z,100055.52
2023-05-10T15:16:51.190Z,100133.40
2023-05-10T15:19:18.241Z,100220.92
2023-05-10T15:21:45.790Z,100255.54
2023-05-10T15:24:12.742Z,100327.56
2023-05-10T15:26:39.678Z,100392.06
2023-05-10T15:29:07.247Z,100395.50
2023-05-10T15:31:36.915Z,100408.36
2023-05-10T15:34:04.105Z,100338.56
2023-05-10T15:36:32.478Z,100387.91
2023-05-10T15:38:59.416Z,100470.45
2023-05-10T15:44:25.465Z,100586.36
2023-05-10T15:46:53.112Z,100629.27
2023-05-10T15:49:20.375Z,100682.45
2023-05-10T15:51:47.319Z,100691.52
2023-05-10T15:54:14.360Z,100720.87
2023-05-10T15:56:41.613Z,100779.63
2023-05-10T15:59:10.837Z,100803.62
2023-05-10T16:01:38.271Z,100825.04
2023-05-10T16:04:05.728Z,100837.35
2023-05-10T16:06:32.985Z,100863.06
2023-05-10T16:08:59.926Z,100899.45
2023-05-10T16:11:27.494Z,100927.73
2023-05-10T16:13:54.734Z,100942.32
2023-05-10T16:16:21.916Z,100920.89
2023-05-10T16:18:49.125Z,100926.88
2023-05-10T16:21:16.699Z,100947.19
2023-05-10T16:23:46.656Z,100980.41
2023-05-10T16:26:14.480Z,101006.61
2023-05-10T16:28:41.637Z,101041.64
2023-05-10T16:31:08.691Z,101064.99
2023-05-10T16:33:37.153Z,101082.95
2023-05-10T16:36:06.522Z,101083.70
2023-05-10T16:38:33.608Z,101075.98
2023-05-10T16:41:03.728Z,101097.85
2023-05-10T16:43:32.548Z,101140.52
2023-05-10T16:45:59.525Z,101167.51
2023-05-10T16:48:27.109Z,101261.62
2023-05-10T16:50:54.055Z,101386.33
2023-05-10T16:53:21.004Z,101440.70
2023-05-10T16:55:48.083Z,101486.70
2023-05-10T16:58:15.245Z,101537.00
2023-05-10T17:00:43.167Z,101648.43
2023-05-10T17:03:10.313Z,101702.23
2023-05-10T17:05:37.465Z,101669.25
2023-05-10T17:08:04.566Z,101698.77
2023-05-10T17:10:31.667Z,101779.65
2023-05-10T17:12:58.599Z,101845.45
2023-05-10T17:15:25.586Z,101912.92
2023-05-10T17:17:52.658Z,101971.02
2023-05-10T17:20:20.061Z,102021.51
2023-05-10T17:22:47.098Z,102058.98
2023-05-10T17:25:14.188Z,102095.59
2023-05-10T17:27:41.601Z,102144.20
2023-05-10T17:30:09.374Z,102184.52
2023-05-10T17:32:36.541Z,102202.42
2023-05-10T17:35:05.342Z,102233.05
2023-05-10T17:37:35.721Z,102257.31
2023-05-10T17:40:04.113Z,102268.51
2023-05-10T17:42:31.362Z,102260.78
2023-05-10T17:44:58.405Z,102254.59
2023-05-10T17:47:25.480Z,102251.17
2023-05-10T17:49:52.596Z,102238.80
2023-05-10T17:52:19.653Z,102162.73
2023-05-10T17:54:47.408Z,102014.08
2023-05-10T17:57:14.357Z,101786.95
2023-05-10T17:59:41.293Z,101568.29
2023-05-10T18:02:08.238Z,101476.37
2023-05-10T18:04:35.468Z,101444.70
2023-05-10T18:07:03.153Z,101415.62
2023-05-10T18:09:30.191Z,101398.70
2023-05-10T18:11:57.347Z,101383.87
2023-05-10T18:14:38.838Z,101355.86
2023-05-10T18:17:08.126Z,101319.13
2023-05-10T18:19:35.377Z,101286.80
2023-05-10T18:22:02.325Z,101257.95
2023-05-10T18:24:38.246Z,101237.15
2023-05-10T18:27:08.622Z,101221.48
2023-05-10T18:29:36.583Z,101208.59
2023-05-10T18:32:03.720Z,101193.67
2023-05-10T18:34:30.773Z,101183.73
2023-05-10T18:36:57.849Z,101176.15
2023-05-10T18:39:25.171Z,101170.29
2023-05-10T18:41:52.211Z,101170.39
2023-05-10T18:44:19.366Z,101165.88
2023-05-10T18:46:46.535Z,101168.75
2023-05-10T18:49:13.833Z,101176.20
2023-05-10T18:51:40.815Z,101179.90
2023-05-10T18:54:07.963Z,101188.53
2023-05-10T18:56:34.908Z,101192.57
2023-05-10T18:59:01.962Z,101196.40
2023-05-10T19:01:29.051Z,101197.83
2023-05-10T19:03:56.561Z,101197.23
2023-05-10T19:06:23.619Z,101187.73
2023-05-10T19:08:50.786Z,101177.91
2023-05-10T19:11:17.807Z,101179.97
2023-05-10T19:13:45.593Z,101197.77
2023-05-10T19:16:16.171Z,101224.16
2023-05-10T19:18:45.035Z,101260.59
2023-05-10T19:21:12.344Z,101310.00
2023-05-10T19:23:40.796Z,101357.43
2023-05-10T19:26:11.014Z,101402.23
2023-05-10T19:28:38.190Z,101454.28
2023-05-10T19:31:06.354Z,101493.67
2023-05-10T19:33:33.518Z,101520.77
2023-05-10T19:36:00.757Z,101550.47
2023-05-10T19:38:27.819Z,101574.60
2023-05-10T19:40:58.425Z,101596.70
2023-05-10T19:43:31.287Z,101615.46
2023-05-10T19:46:00.519Z,101622.83
2023-05-10T19:48:27.473Z,101638.34
2023-05-10T19:50:54.818Z,101650.28
2023-05-10T19:53:21.694Z,101660.22
2023-05-10T19:55:48.714Z,101672.02
2023-05-10T19:58:15.755Z,101677.21
2023-05-10T20:00:42.857Z,101680.36
2023-05-10T20:03:09.998Z,101680.88
2023-05-10T20:05:36.997Z,101677.27
2023-05-10T20:08:03.940Z,101679.63
2023-05-10T20:10:31.092Z,101674.46
2023-05-10T20:12:58.971Z,101671.70
2023-05-10T20:15:26.106Z,101665.18
2023-05-10T20:17:53.949Z,101659.89
2023-05-10T20:20:21.429Z,101651.83
2023-05-10T20:22:48.594Z,101642.33
2023-05-10T20:25:16.033Z,101635.91
2023-05-10T20:27:42.924Z,101634.42
2023-05-10T20:30:10.542Z,101640.83
2023-05-10T20:32:37.559Z,101649.09
2023-05-10T20:35:05.444Z,101674.23
2023-05-10T20:37:32.390Z,101701.73
2023-05-10T20:39:59.318Z,101727.00
2023-05-10T20:42:26.591Z,101744.46
2023-05-10T20:44:53.540Z,101761.51
2023-05-10T20:47:20.630Z,101770.02
2023-05-10T20:49:47.626Z,101781.11
2023-05-10T20:52:14.565Z,101779.77
2023-05-10T20:54:41.626Z,101780.20
2023-05-10T20:57:08.555Z,101779.33
2023-05-10T20:59:35.425Z,101779.23
2023-05-10T21:02:02.403Z,101776.59
2023-05-10T21:04:29.434Z,101774.39
2023-05-10T21:06:57.155Z,101776.16
2023-05-10T21:09:30.965Z,101775.16
2023-05-10T21:11:58.416Z,101775.02
2023-05-10T21:14:25.363Z,101774.00
2023-05-10T21:16:52.512Z,101770.61
2023-05-10T21:19:19.454Z,101769.09
2023-05-10T21:21:46.604Z,101763.95
2023-05-10T21:24:13.880Z,101763.95
2023-05-10T21:26:42.238Z,101762.59
2023-05-10T21:29:09.291Z,101758.67
2023-05-10T21:32:33.014Z,101760.15
2023-05-10T21:36:16.238Z,101757.79
2023-05-10T21:39:02.203Z,101754.27
2023-05-10T21:41:29.228Z,101750.80
2023-05-10T21:43:56.688Z,101747.11
2023-05-10T21:46:23.749Z,101741.90
2023-05-10T21:48:50.741Z,101737.15
2023-05-10T21:51:18.136Z,101729.50
2023-05-10T21:53:45.090Z,101723.73
2023-05-10T21:56:12.327Z,101720.97
2023-05-10T21:58:39.273Z,101716.70
2023-05-10T22:01:25.029Z,101716.20
2023-05-10T22:03:52.109Z,101715.07
2023-05-10T22:06:19.048Z,101710.16
2023-05-10T22:08:46.006Z,101708.22
2023-05-10T22:11:13.148Z,101705.45
2023-05-10T22:13:40.092Z,101704.28
2023-05-10T22:16:07.054Z,101707.36
2023-05-10T22:18:34.020Z,101710.56
2023-05-10T22:21:01.331Z,101715.55
2023-05-10T22:23:28.275Z,101721.94
2023-05-10T22:26:52.275Z,101724.36
2023-05-10T22:29:19.408Z,101735.17
2023-05-10T22:31:46.469Z,101743.85
2023-05-10T22:34:14.217Z,101750.25
2023-05-10T22:36:41.155Z,101754.40
2023-05-10T22:39:08.621Z,101759.80
2023-05-10T22:41:35.587Z,101761.34
2023-05-10T22:44:05.138Z,101757.81
2023-05-10T22:46:32.705Z,101742.58
2023-05-10T22:49:00.693Z,101728.19
2023-05-10T22:51:27.851Z,101702.11
2023-05-10T22:53:54.792Z,101672.77
2023-05-10T22:56:22.347Z,101651.88
2023-05-10T22:58:49.711Z,101635.57
2023-05-10T23:01:17.291Z,101617.71
2023-05-10T23:03:44.306Z,101597.83
2023-05-10T23:06:11.248Z,101566.77
2023-05-10T23:08:38.197Z,101537.42
2023-05-10T23:11:05.346Z,101518.36
2023-05-10T23:13:32.289Z,101502.02
2023-05-10T23:16:05.344Z,101482.93
2023-05-10T23:18:32.537Z,101457.17
2023-05-10T23:20:59.437Z,101431.63
2023-05-10T23:23:26.431Z,101409.89
2023-05-10T23:25:53.358Z,101388.66
2023-05-10T23:28:20.209Z,101369.98
2023-05-10T23:30:47.144Z,101354.69
2023-05-10T23:33:14.519Z,101341.06
2023-05-10T23:35:41.447Z,101325.02
2023-05-10T23:38:08.395Z,101318.61
2023-05-10T23:40:35.572Z,101310.84
2023-05-10T23:43:02.693Z,101302.23
2023-05-10T23:45:29.676Z,101294.28
2023-05-10T23:47:56.722Z,101292.66
2023-05-10T23:50:23.629Z,101279.92
2023-05-10T23:52:50.485Z,101275.77
2023-05-10T23:55:17.537Z,101270.55
2023-05-10T23:57:44.460Z,101267.23
